Time;durP1;ratioP1;P1;durP2;ratioP2;P2;SDS_P1;SDS_P2;PMS_P1;PMS_P2;Temp;Humidity;BMP_temperature;BMP_pressure;BME280_temperature;BME280_humidity;BME280_pressure;Samples;Min_cycle;Max_cycle;Signal;HPM_P1;HPM_P2
2021/06/14 00:00:49;;;;;;;6.15;2.70;;;461.40;1408.00;;;;;;5038852;28;20103;-72
2021/06/14 00:03:15;;;;;;;3.15;2.35;;;461.50;1382.40;;;;;;5038807;28;20026;-73
2021/06/14 00:05:46;;;;;;;3.45;2.80;;;461.30;1408.00;;;;;;5038863;28;20036;-69
2021/06/14 00:08:14;;;;;;;4.15;3.20;;;461.40;1408.00;;;;;;5038958;28;20021;-72
2021/06/14 00:10:42;;;;;;;4.60;2.75;;;461.40;1382.40;;;;;;5038791;28;20483;-71
2021/06/14 00:13:09;;;;;;;3.30;2.47;;;461.40;1382.40;;;;;;5038393;28;20500;-73
2021/06/14 00:15:37;;;;;;;4.78;2.83;;;461.40;1382.40;;;;;;5038914;28;20023;-70
2021/06/14 00:18:04;;;;;;;6.15;3.10;;;461.40;1382.40;;;;;;5038879;28;20025;-71
2021/06/14 00:20:30;;;;;;;9.95;2.83;;;461.40;1382.40;;;;;;5038709;28;20335;-72
2021/06/14 00:22:56;;;;;;;9.02;2.92;;;461.30;1382.40;;;;;;5038357;28;20053;-73
2021/06/14 00:25:24;;;;;;;7.50;3.22;;;461.30;1382.40;;;;;;5048548;28;20036;-71
2021/06/14 00:27:50;;;;;;;6.05;3.38;;;461.30;1382.40;;;;;;5034969;28;20080;-72
2021/06/14 00:30:40;;;;;;;5.25;2.83;;;461.20;1382.40;;;;;;5028825;28;20026;-66
2021/06/14 00:33:07;;;;;;;8.10;2.90;;;461.20;1382.40;;;;;;5038210;28;20029;-69
2021/06/14 00:35:33;;;;;;;5.10;2.83;;;461.10;1408.00;;;;;;5038558;28;20048;-71
2021/06/14 00:37:59;;;;;;;5.82;3.10;;;461.20;1408.00;;;;;;5038456;28;20048;-71
2021/06/14 00:40:25;;;;;;;3.72;2.78;;;461.10;1408.00;;;;;;5020575;28;20053;-68
2021/06/14 00:42:51;;;;;;;6.63;2.72;;;461.20;1408.00;;;;;;5038234;28;20017;-71
2021/06/14 00:45:21;;;;;;;5.57;2.60;;;461.20;1408.00;;;;;;5038571;28;20028;-76
2021/06/14 00:47:47;;;;;;;5.57;2.63;;;461.20;1408.00;;;;;;5038479;28;20028;-72
2021/06/14 00:50:16;;;;;;;4.10;2.72;;;461.30;1408.00;;;;;;5038457;28;20110;-71
2021/06/14 00:52:42;;;;;;;4.28;2.55;;;461.20;1408.00;;;;;;5038283;28;20041;-75
2021/06/14 00:55:10;;;;;;;6.57;2.70;;;461.30;1408.00;;;;;;5042985;28;20076;-76
2021/06/14 00:57:36;;;;;;;5.68;3.15;;;461.30;1408.00;;;;;;5038727;28;20017;-76
2021/06/14 01:00:03;;;;;;;6.18;2.95;;;461.30;1408.00;;;;;;5038305;28;20025;-70
2021/06/14 01:02:29;;;;;;;7.53;2.80;;;461.20;1408.00;;;;;;5038216;28;20132;-76
2021/06/14 01:04:55;;;;;;;4.72;2.75;;;461.20;1408.00;;;;;;5038139;28;20053;-74
2021/06/14 01:07:21;;;;;;;6.18;2.70;;;461.10;1408.00;;;;;;5038419;28;20071;-73
2021/06/14 01:09:47;;;;;;;3.90;2.97;;;461.10;1382.40;;;;;;5035363;28;20026;-68
2021/06/14 01:12:19;;;;;;;3.55;2.83;;;461.10;1408.00;;;;;;5035290;28;20021;-74
2021/06/14 01:14:50;;;;;;;4.72;3.20;;;461.10;1408.00;;;;;;5034984;28;20029;-71
2021/06/14 01:17:33;;;;;;;4.60;3.00;;;461.20;1408.00;;;;;;5034932;28;20032;-74
2021/06/14 01:20:20;;;;;;;5.00;2.67;;;461.20;1408.00;;;;;;5035123;28;20025;-72
2021/06/14 01:23:17;;;;;;;8.18;3.00;;;461.30;1408.00;;;;;;5022926;28;20079;-73
2021/06/14 01:26:14;;;;;;;7.43;3.08;;;461.20;1408.00;;;;;;5044608;28;20163;-75
2021/06/14 01:28:41;;;;;;;4.10;2.95;;;461.20;1408.00;;;;;;5023332;28;20056;-73
2021/06/14 01:31:10;;;;;;;4.88;2.60;;;461.10;1433.60;;;;;;5031739;28;20061;-71
2021/06/14 01:33:36;;;;;;;7.50;3.10;;;461.10;1408.00;;;;;;5034915;28;20168;-77
2021/06/14 01:36:05;;;;;;;5.07;3.10;;;461.00;1459.20;;;;;;5034594;28;20022;-69
2021/06/14 01:38:32;;;;;;;5.28;2.80;;;461.00;1459.20;;;;;;5035075;28;20191;-70
2021/06/14 01:41:07;;;;;;;6.45;2.95;;;461.00;1484.80;;;;;;5034686;28;20147;-70
2021/06/14 01:43:37;;;;;;;4.97;2.65;;;460.90;1587.20;;;;;;5034352;28;20463;-71
2021/06/14 01:46:11;;;;;;;6.50;2.53;;;;;;;;;;5034661;28;20125;-70
2021/06/14 01:48:38;;;;;;;6.63;2.72;;;;;;;;;;5021489;28;20040;-71
2021/06/14 01:51:07;;;;;;;5.43;3.05;;;;;;;;;;5034438;28;20116;-71
2021/06/14 01:53:33;;;;;;;4.78;2.95;;;460.90;1433.60;;;;;;5034205;28;20041;-71
2021/06/14 01:56:00;;;;;;;7.32;2.85;;;460.80;1459.20;;;;;;5039131;28;20387;-71
2021/06/14 01:58:26;;;;;;;3.42;2.80;;;460.80;1459.20;;;;;;5034357;28;20163;-72
2021/06/14 02:00:53;;;;;;;5.68;3.25;;;460.80;1459.20;;;;;;5034367;28;20376;-71
2021/06/14 02:03:19;;;;;;;5.25;3.45;;;436.10;1459.20;;;;;;5029859;28;20081;-73
2021/06/14 02:05:47;;;;;;;10.02;3.97;;;436.10;1433.60;;;;;;5022318;28;20029;-73
2021/06/14 02:08:15;;;;;;;9.88;3.70;;;436.10;1459.20;;;;;;5014179;28;20018;-73
2021/06/14 02:10:41;;;;;;;5.43;3.03;;;436.10;1459.20;;;;;;5014025;28;20480;-73
2021/06/14 02:13:09;;;;;;;7.55;3.78;;;460.80;1459.20;;;;;;5014069;28;20073;-74
2021/06/14 02:15:35;;;;;;;13.15;5.28;;;436.00;1459.20;;;;;;5014206;28;20372;-74
2021/06/14 02:18:03;;;;;;;8.40;4.47;;;436.00;1459.20;;;;;;5014081;28;20069;-71
2021/06/14 02:20:29;;;;;;;9.48;5.07;;;436.10;1459.20;;;;;;5013831;28;20017;-73
2021/06/14 02:22:55;;;;;;;6.93;3.13;;;436.10;1459.20;;;;;;5013566;28;20129;-75
2021/06/14 02:25:21;;;;;;;7.63;3.22;;;436.10;1459.20;;;;;;5025232;28;20443;-73
2021/06/14 02:27:47;;;;;;;4.57;3.00;;;436.10;1459.20;;;;;;5013893;28;20022;-68
2021/06/14 02:30:20;;;;;;;6.95;3.03;;;436.10;1484.80;;;;;;5023217;28;20415;-68
2021/06/14 02:32:47;;;;;;;6.05;3.00;;;436.10;1459.20;;;;;;5033579;28;20026;-72
2021/06/14 02:35:14;;;;;;;5.22;2.95;;;436.10;1459.20;;;;;;5033558;28;20057;-70
2021/06/14 02:37:44;;;;;;;6.57;3.30;;;436.10;1459.20;;;;;;5033544;28;20380;-70
2021/06/14 02:40:11;;;;;;;7.85;2.63;;;436.10;1459.20;;;;;;5033290;28;20049;-69
2021/06/14 02:42:39;;;;;;;7.78;3.20;;;436.10;1459.20;;;;;;5033482;28;20108;-71
2021/06/14 02:45:06;;;;;;;4.45;2.92;;;436.10;1459.20;;;;;;5033307;28;20021;-70
2021/06/14 02:47:34;;;;;;;11.98;4.13;;;436.10;1459.20;;;;;;5033758;28;20026;-70
2021/06/14 02:50:01;;;;;;;5.28;3.40;;;436.10;1459.20;;;;;;5033292;28;20022;-70
2021/06/14 02:52:28;;;;;;;5.95;2.97;;;436.00;1459.20;;;;;;5033204;28;20115;-70
2021/06/14 02:55:02;;;;;;;6.70;3.15;;;435.90;1484.80;;;;;;5037135;28;20025;-71
2021/06/14 02:57:30;;;;;;;4.07;2.88;;;436.10;1459.20;;;;;;5028200;28;20026;-70
2021/06/14 02:59:56;;;;;;;3.95;2.58;;;460.80;1484.80;;;;;;5018079;28;20463;-70
2021/06/14 03:02:24;;;;;;;5.38;3.13;;;460.80;1484.80;;;;;;5013126;28;20101;-69
2021/06/14 03:04:51;;;;;;;14.45;4.05;;;460.80;1484.80;;;;;;5013100;28;20033;-69
2021/06/14 03:07:27;;;;;;;4.63;3.20;;;460.90;1484.80;;;;;;5013203;28;20022;-69
2021/06/14 03:09:53;;;;;;;6.35;3.03;;;460.80;1484.80;;;;;;5013224;28;20026;-68
2021/06/14 03:12:23;;;;;;;8.52;3.10;;;460.90;1484.80;;;;;;5013140;28;20017;-68
2021/06/14 03:14:50;;;;;;;8.10;3.83;;;460.90;1484.80;;;;;;5012974;28;20370;-70
2021/06/14 03:17:17;;;;;;;7.47;3.17;;;460.90;1484.80;;;;;;5013024;28;20022;-71
2021/06/14 03:19:46;;;;;;;6.00;3.30;;;460.80;1484.80;;;;;;5013022;28;20028;-70
2021/06/14 03:22:13;;;;;;;5.40;3.08;;;436.10;1459.20;;;;;;5012665;28;20383;-70
2021/06/14 03:24:40;;;;;;;7.88;3.17;;;460.80;1484.80;;;;;;5013574;28;20444;-70
2021/06/14 03:27:07;;;;;;;5.45;2.80;;;436.10;1459.20;;;;;;5012760;28;20193;-70
2021/06/14 03:29:33;;;;;;;5.65;3.35;;;436.10;1459.20;;;;;;5016618;28;20479;-70
2021/06/14 03:32:01;;;;;;;8.10;3.40;;;460.80;1484.80;;;;;;5032188;28;20036;-73
2021/06/14 03:34:27;;;;;;;7.90;4.20;;;460.80;1484.80;;;;;;5032495;28;20064;-71
2021/06/14 03:36:53;;;;;;;18.27;6.72;;;460.80;1484.80;;;;;;5032450;28;20021;-72
2021/06/14 03:39:20;;;;;;;16.23;7.40;;;460.80;1484.80;;;;;;5032564;28;20136;-71
2021/06/14 03:41:48;;;;;;;21.88;10.43;;;460.80;1484.80;;;;;;5032879;28;20014;-71
2021/06/14 03:44:15;;;;;;;12.85;6.55;;;460.90;1484.80;;;;;;5032469;28;20116;-70
2021/06/14 03:46:41;;;;;;;10.20;7.38;;;460.80;1484.80;;;;;;5032448;28;20025;-71
2021/06/14 03:49:07;;;;;;;8.02;7.22;;;460.80;1484.80;;;;;;5032376;28;20130;-70
2021/06/14 03:51:34;;;;;;;9.48;7.03;;;460.80;1484.80;;;;;;5032165;28;20021;-72
2021/06/14 03:54:00;;;;;;;9.02;4.90;;;436.10;1484.80;;;;;;5032336;28;20381;-71
2021/06/14 03:56:29;;;;;;;7.05;4.43;;;436.10;1484.80;;;;;;5036472;28;20030;-71
2021/06/14 03:58:55;;;;;;;5.95;3.63;;;435.90;1484.80;;;;;;5032345;28;20026;-71
2021/06/14 04:01:21;;;;;;;7.82;3.25;;;436.10;1484.80;;;;;;5021665;28;20038;-71
2021/06/14 04:06:22;;;;;;;5.65;3.47;;;435.90;1510.40;;;;;;5019366;28;20044;-71
2021/06/14 04:08:47;;;;;;;7.63;3.60;;;435.90;1510.40;;;;;;5012727;28;20449;-72
2021/06/14 04:11:13;;;;;;;9.05;4.60;;;435.80;1510.40;;;;;;5012052;28;20473;-68
2021/06/14 04:13:39;;;;;;;7.85;3.50;;;435.90;1510.40;;;;;;5012228;28;20022;-69
2021/06/14 04:16:05;;;;;;;5.30;3.67;;;435.90;1510.40;;;;;;5012107;28;20084;-71
2021/06/14 04:18:30;;;;;;;8.40;3.15;;;436.10;1484.80;;;;;;5012237;28;20788;-71
2021/06/14 04:20:56;;;;;;;10.70;3.90;;;436.00;1510.40;;;;;;5012063;28;20030;-72
2021/06/14 04:23:22;;;;;;;5.57;3.03;;;436.10;1484.80;;;;;;5015227;28;20108;-72
2021/06/14 04:25:47;;;;;;;14.10;4.10;;;435.90;1510.40;;;;;;5020006;28;20465;-74
2021/06/14 04:28:13;;;;;;;6.13;3.30;;;436.10;1510.40;;;;;;5016228;28;20030;-69
2021/06/14 04:30:39;;;;;;;8.77;3.38;;;460.80;1536.00;;;;;;5024249;28;20040;-70
2021/06/14 04:33:05;;;;;;;6.65;3.55;;;436.10;1510.40;;;;;;5011727;28;20014;-71
2021/06/14 04:35:31;;;;;;;9.30;3.67;;;436.10;1510.40;;;;;;5012680;28;20028;-70
2021/06/14 04:37:57;;;;;;;7.90;3.88;;;436.10;1484.80;;;;;;5011916;28;20096;-70
2021/06/14 04:40:23;;;;;;;9.75;3.33;;;436.10;1510.40;;;;;;5012239;28;20026;-70
2021/06/14 04:42:48;;;;;;;8.32;3.88;;;460.80;1510.40;;;;;;5012005;28;20022;-72
2021/06/14 04:45:14;;;;;;;6.50;3.72;;;460.80;1536.00;;;;;;5026507;28;20072;-74
2021/06/14 04:47:40;;;;;;;6.55;3.63;;;436.10;1510.40;;;;;;5015705;28;20073;-72
2021/06/14 04:50:07;;;;;;;7.18;3.90;;;460.90;1536.00;;;;;;5016066;28;20148;-72
2021/06/14 04:52:33;;;;;;;4.72;3.45;;;460.90;1510.40;;;;;;5015861;28;20042;-73
2021/06/14 04:54:59;;;;;;;6.95;4.07;;;460.90;1510.40;;;;;;5023023;28;20056;-72
2021/06/14 04:57:25;;;;;;;8.68;3.67;;;460.90;1510.40;;;;;;5020554;28;20021;-73
2021/06/14 04:59:51;;;;;;;6.80;3.45;;;460.90;1510.40;;;;;;5019722;28;20068;-73
2021/06/14 05:02:17;;;;;;;6.85;4.03;;;460.90;1536.00;;;;;;5015466;28;20020;-71
2021/06/14 05:04:43;;;;;;;7.15;3.80;;;461.20;1484.80;;;;;;5015755;28;20124;-73
2021/06/14 05:07:09;;;;;;;6.88;3.33;;;461.10;1510.40;;;;;;5015007;28;20396;-74
2021/06/14 05:09:34;;;;;;;13.18;3.53;;;460.90;1536.00;;;;;;5015344;28;20129;-73
2021/06/14 05:12:00;;;;;;;6.97;3.70;;;461.00;1510.40;;;;;;5015075;28;20022;-72
2021/06/14 05:14:26;;;;;;;6.38;3.85;;;460.90;1536.00;;;;;;5015094;28;20042;-71
2021/06/14 05:16:52;;;;;;;9.27;3.60;;;461.00;1510.40;;;;;;5014943;28;20064;-72
2021/06/14 05:19:17;;;;;;;16.63;6.70;;;461.00;1536.00;;;;;;5015689;28;20060;-72
2021/06/14 05:21:43;;;;;;;6.00;3.35;;;461.20;1510.40;;;;;;5015172;28;20070;-74
2021/06/14 05:24:09;;;;;;;5.82;3.28;;;461.40;1484.80;;;;;;5014924;28;20046;-72
2021/06/14 05:26:34;;;;;;;5.38;3.28;;;461.40;1484.80;;;;;;5032084;28;20473;-73
2021/06/14 05:29:00;;;;;;;5.65;3.53;;;461.40;1510.40;;;;;;5014941;28;20033;-75
2021/06/14 05:31:26;;;;;;;7.22;4.05;;;461.40;1484.80;;;;;;5034097;28;20021;-73
2021/06/14 05:33:52;;;;;;;6.40;3.05;;;461.50;1689.60;;;;;;5034581;28;20156;-74
2021/06/14 05:36:17;;;;;;;4.38;2.92;;;461.30;1459.20;;;;;;5034608;28;20097;-74
2021/06/14 05:38:43;;;;;;;6.10;4.07;;;461.40;1459.20;;;;;;5034841;28;20026;-74
2021/06/14 05:41:09;;;;;;;11.43;4.88;;;461.40;1459.20;;;;;;5034324;28;20029;-75
2021/06/14 05:43:35;;;;;;;6.32;3.50;;;461.60;1459.20;;;;;;5034505;28;20029;-72
2021/06/14 05:46:00;;;;;;;6.30;3.90;;;461.40;1484.80;;;;;;5034441;28;20022;-72
2021/06/14 05:48:26;;;;;;;5.30;3.42;;;461.40;1510.40;;;;;;5016142;28;20038;-73
2021/06/14 05:50:52;;;;;;;7.60;3.47;;;;;;;;;;5034335;28;20076;-73
2021/06/14 05:53:21;;;;;;;6.82;3.08;;;;;;;;;;5034288;28;20029;-73
2021/06/14 05:55:48;;;;;;;8.02;4.03;;;;;;;;;;5037354;28;20490;-72
2021/06/14 05:58:14;;;;;;;5.75;3.58;;;;;;;;;;5034254;28;20030;-72
2021/06/14 06:00:40;;;;;;;6.32;2.88;;;;;;;;;;5034094;28;20025;-72
2021/06/14 06:03:06;;;;;;;5.35;3.28;;;;;;;;;;5034167;28;20057;-71
2021/06/14 06:05:33;;;;;;;6.80;3.83;;;;;;;;;;5034700;28;20523;-72
2021/06/14 06:07:59;;;;;;;7.63;4.10;;;;;;;;;;5034297;28;20022;-70
2021/06/14 06:10:25;;;;;;;8.80;4.05;;;;;;;;;;5034231;28;20056;-71
2021/06/14 06:12:51;;;;;;;5.53;3.28;;;;;;;;;;5033975;28;20033;-70
2021/06/14 06:15:19;;;;;;;10.40;3.92;;;;;;;;;;5033751;28;20384;-71
2021/06/14 06:17:45;;;;;;;8.18;4.28;;;;;;;;;;5033561;28;20480;-73
2021/06/14 06:20:12;;;;;;;6.60;4.00;;;;;;;;;;5032827;28;20022;-70
2021/06/14 06:22:39;;;;;;;7.47;3.80;;;;;;;;;;5020704;28;20030;-72
2021/06/14 06:25:09;;;;;;;7.75;3.80;;;;;;;;;;5041263;28;20381;-72
2021/06/14 06:27:35;;;;;;;10.40;6.93;;;487.00;1356.80;;;;;;5032090;28;20045;-71
2021/06/14 06:30:01;;;;;;;11.98;3.90;;;487.10;1331.20;;;;;;5021519;28;20060;-71
2021/06/14 06:32:27;;;;;;;8.73;3.90;;;;;;;;;;5033594;28;20049;-73
2021/06/14 06:34:53;;;;;;;10.10;5.43;;;;;;;;;;5033025;28;20399;-72
2021/06/14 06:37:19;;;;;;;5.97;3.58;;;;;;;;;;5033889;28;20167;-73
2021/06/14 06:39:45;;;;;;;6.30;3.47;;;;;;;;;;5033708;28;20018;-72
2021/06/14 06:42:11;;;;;;;5.63;3.38;;;;;;;;;;5033343;28;20388;-72
2021/06/14 06:44:38;;;;;;;9.75;3.85;;;487.30;1331.20;;;;;;5033567;28;20020;-73
2021/06/14 06:47:04;;;;;;;6.80;3.90;;;;;;;;;;5033316;28;20022;-72
2021/06/14 06:49:31;;;;;;;6.93;3.88;;;;;;;;;;5033200;28;20108;-72
2021/06/14 06:51:57;;;;;;;11.18;4.20;;;;;;;;;;5033426;28;20109;-72
2021/06/14 06:54:23;;;;;;;8.07;4.90;;;512.40;1280.00;;;;;;5034781;28;20041;-73
2021/06/14 06:56:50;;;;;;;12.10;4.60;;;;;;;;;;5048533;28;20432;-72
2021/06/14 06:59:16;;;;;;;12.45;4.18;;;512.40;1280.00;;;;;;5033458;28;20079;-74
2021/06/14 07:01:44;;;;;;;7.50;3.95;;;512.10;1305.60;;;;;;5032764;28;20476;-74
2021/06/14 07:04:10;;;;;;;6.78;3.13;;;512.10;1305.60;;;;;;5033028;28;20092;-74
2021/06/14 07:06:36;;;;;;;7.88;4.13;;;;;;;;;;5032612;28;20018;-74
2021/06/14 07:09:04;;;;;;;9.88;5.00;;;512.30;1305.60;;;;;;5032372;28;20028;-74
2021/06/14 07:11:30;;;;;;;9.75;4.57;;;512.30;1331.20;;;;;;5032846;28;20018;-74
2021/06/14 07:13:56;;;;;;;7.90;4.65;;;512.20;1331.20;;;;;;5032639;28;20113;-72
2021/06/14 07:16:23;;;;;;;8.05;4.32;;;512.10;1305.60;;;;;;5032679;28;20026;-74
2021/06/14 07:18:50;;;;;;;18.92;12.90;;;;;;;;;;5032663;28;20559;-73
2021/06/14 07:21:16;;;;;;;8.85;4.70;;;;;;;;;;5032755;28;20014;-72
2021/06/14 07:23:42;;;;;;;7.90;4.40;;;;;;;;;;5032272;28;20503;-72
2021/06/14 07:26:08;;;;;;;12.88;4.72;;;;;;;;;;5040795;28;20029;-74
2021/06/14 07:28:34;;;;;;;9.90;4.22;;;;;;;;;;5022903;28;20109;-74
2021/06/14 07:31:04;;;;;;;7.28;3.95;;;;;;;;;;5028475;28;20037;-74
2021/06/14 07:33:31;;;;;;;13.02;6.15;;;;;;;;;;5032471;28;20253;-74
2021/06/14 07:35:57;;;;;;;12.02;5.22;;;;;;;;;;5032638;28;20380;-74
2021/06/14 07:38:23;;;;;;;7.70;4.30;;;;;;;;;;5032354;28;20026;-74
2021/06/14 07:40:50;;;;;;;12.57;4.53;;;;;;;;;;5032430;28;20025;-73
2021/06/14 07:43:17;;;;;;;11.55;4.82;;;;;;;;;;5032359;28;20018;-74
2021/06/14 07:45:43;;;;;;;11.00;5.05;;;;;;;;;;5032447;28;20022;-71
2021/06/14 07:48:10;;;;;;;8.63;4.35;;;;;;;;;;5032538;28;20029;-75
2021/06/14 07:50:36;;;;;;;9.32;5.60;;;;;;;;;;5032367;28;20021;-74
2021/06/14 07:53:02;;;;;;;10.18;5.43;;;;;;;;;;5031914;28;20037;-73
2021/06/14 07:55:29;;;;;;;9.25;4.72;;;;;;;;;;5035325;28;20025;-74
2021/06/14 07:57:55;;;;;;;8.02;4.75;;;;;;;;;;5032300;28;20029;-74
2021/06/14 08:00:21;;;;;;;9.25;5.40;;;;;;;;;;5031985;28;20113;-73
2021/06/14 08:02:47;;;;;;;8.55;4.35;;;;;;;;;;5014540;28;20483;-74
2021/06/14 08:05:14;;;;;;;8.05;4.60;;;;;;;;;;5032054;28;20071;-69
2021/06/14 08:07:41;;;;;;;10.10;5.55;;;;;;;;;;5032558;28;20026;-73
2021/06/14 08:10:11;;;;;;;9.65;5.00;;;512.60;1305.60;;;;;;5031977;28;20045;-71
2021/06/14 08:12:49;;;;;;;10.55;4.45;;;;;;;;;;5032553;28;20112;-75
2021/06/14 08:15:16;;;;;;;9.35;4.75;;;;;;;;;;5032008;28;20045;-73
2021/06/14 08:17:43;;;;;;;7.18;4.45;;;;;;;;;;5031944;28;20036;-73
2021/06/14 08:21:01;;;;;;;7.93;4.03;;;;;;;;;;5036298;28;20033;-72
2021/06/14 08:25:27;;;;;;;9.32;4.15;;;512.90;1280.00;;;;;;5043724;28;20064;-73
2021/06/14 08:27:53;;;;;;;27.25;8.73;;;;;;;;;;5031680;28;20073;-73
2021/06/14 08:30:20;;;;;;;10.32;5.13;;;;;;;;;;5026165;28;20029;-74
2021/06/14 08:32:46;;;;;;;7.70;4.95;;;;;;;;;;5017843;28;20033;-72
2021/06/14 08:35:14;;;;;;;11.45;5.07;;;;;;;;;;5035365;28;20039;-72
2021/06/14 08:37:40;;;;;;;9.10;4.75;;;;;;;;;;5035668;28;20029;-71
2021/06/14 08:40:07;;;;;;;9.70;6.13;;;;;;;;;;5017831;28;20139;-75
2021/06/14 08:42:33;;;;;;;9.52;5.25;;;;;;;;;;5035623;28;20176;-74
2021/06/14 08:44:59;;;;;;;16.52;5.78;;;;;;;;;;5017418;28;20025;-74
2021/06/14 08:47:25;;;;;;;10.98;5.35;;;;;;;;;;5035581;28;20026;-73
2021/06/14 08:49:51;;;;;;;10.85;5.95;;;;;;;;;;5035737;28;20056;-70
2021/06/14 08:52:17;;;;;;;24.42;12.75;;;;;;;;;;5035260;28;20045;-73
2021/06/14 08:54:44;;;;;;;8.23;4.57;;;;;;;;;;5038295;28;20033;-72
2021/06/14 08:57:13;;;;;;;7.72;4.25;;;;;;;;;;5035523;28;20021;-74
2021/06/14 08:59:40;;;;;;;10.20;5.35;;;538.00;1228.80;;;;;;5035387;28;20101;-74
2021/06/14 09:02:06;;;;;;;5.57;4.57;;;537.90;1254.40;;;;;;5035210;28;20017;-75
2021/06/14 09:04:33;;;;;;;9.65;5.57;;;;;;;;;;5035137;28;20034;-73
2021/06/14 09:07:00;;;;;;;9.70;4.60;;;;;;;;;;5035010;28;20045;-73
2021/06/14 09:09:28;;;;;;;9.80;3.85;;;;;;;;;;5035112;28;20026;-75
2021/06/14 09:11:55;;;;;;;8.23;4.32;;;;;;;;;;5035075;28;20457;-75
2021/06/14 09:14:22;;;;;;;10.05;4.72;;;;;;;;;;5035122;28;20038;-73
2021/06/14 09:16:50;;;;;;;8.13;4.47;;;;;;;;;;5017075;28;20546;-73
2021/06/14 09:19:43;;;;;;;10.95;4.85;;;;;;;;;;5034848;28;20035;-75
2021/06/14 09:22:11;;;;;;;7.57;4.32;;;;;;;;;;5030936;28;20092;-76
2021/06/14 09:24:37;;;;;;;8.88;4.85;;;;;;;;;;5037531;28;20044;-71
2021/06/14 09:27:03;;;;;;;7.25;4.07;;;;;;;;;;5039284;28;20033;-74
2021/06/14 09:29:30;;;;;;;7.53;3.83;;;;;;;;;;5002716;28;20029;-74
2021/06/14 09:31:58;;;;;;;10.80;5.28;;;;;;;;;;5034606;28;20025;-74
2021/06/14 09:34:53;;;;;;;9.23;5.50;;;;;;;;;;5034693;28;20067;-74
2021/06/14 09:37:21;;;;;;;13.40;4.18;;;589.30;1126.40;;;;;;5032189;28;20037;-74
2021/06/14 09:39:48;;;;;;;12.50;4.57;;;589.20;1126.40;;;;;;5034726;28;20411;-74
2021/06/14 09:42:16;;;;;;;9.48;3.95;;;;;;;;;;5034319;28;20026;-75
2021/06/14 09:44:42;;;;;;;5.82;4.25;;;;;;;;;;5034411;28;20040;-75
2021/06/14 09:47:10;;;;;;;7.90;4.80;;;;;;;;;;5034512;28;20483;-74
2021/06/14 09:49:37;;;;;;;8.50;4.32;;;;;;;;;;5034137;28;20025;-72
2021/06/14 09:52:03;;;;;;;6.95;3.80;;;;;;;;;;5034348;28;20045;-73
2021/06/14 09:54:34;;;;;;;6.18;4.43;;;;;;;;;;5035840;28;20074;-73
2021/06/14 09:57:00;;;;;;;9.77;4.40;;;;;;;;;;5034055;28;20021;-74
2021/06/14 09:59:28;;;;;;;8.40;4.07;;;;;;;;;;5034507;28;20430;-72
2021/06/14 10:02:17;;;;;;;6.93;4.50;;;;;;;;;;5034049;28;20013;-74
2021/06/14 10:04:47;;;;;;;7.22;3.63;;;;;;;;;;5034272;28;20432;-73
2021/06/14 10:07:15;;;;;;;10.57;4.10;;;;;;;;;;5034346;28;20111;-74
2021/06/14 10:09:52;;;;;;;10.30;4.50;;;614.70;1075.20;;;;;;5033873;28;20029;-74
2021/06/14 10:12:25;;;;;;;8.35;4.75;;;;;;;;;;5033892;28;20029;-74
2021/06/14 10:15:01;;;;;;;8.48;4.57;;;;;;;;;;5033670;28;20040;-74
2021/06/14 10:17:35;;;;;;;7.40;4.10;;;;;;;;;;5020139;28;20133;-75
2021/06/14 10:20:14;;;;;;;7.63;4.28;;;;;;;;;;5033597;28;20044;-71
2021/06/14 10:22:41;;;;;;;9.10;4.50;;;;;;;;;;5020882;28;20388;-75
2021/06/14 10:25:08;;;;;;;7.80;4.03;;;;;;;;;;5040520;28;20025;-74
2021/06/14 10:27:35;;;;;;;5.97;3.90;;;;;;;;;;5032573;28;20022;-74
2021/06/14 10:30:01;;;;;;;8.70;3.92;;;;;;;;;;5021399;28;20480;-72
2021/06/14 10:32:28;;;;;;;7.18;3.85;;;;;;;;;;5034090;28;20048;-74
2021/06/14 10:34:54;;;;;;;9.50;4.57;;;614.50;1049.60;;;;;;5033177;28;20029;-73
2021/06/14 10:37:21;;;;;;;8.75;4.65;;;614.40;1049.60;;;;;;5033457;28;20506;-71
2021/06/14 10:39:52;;;;;;;5.63;3.25;;;614.40;1024.00;;;;;;5033345;28;20030;-74
2021/06/14 10:42:18;;;;;;;8.80;3.40;;;;;;;;;;5033410;28;20021;-74
2021/06/14 10:44:44;;;;;;;8.10;4.03;;;;;;;;;;5033259;28;20034;-74
2021/06/14 10:47:11;;;;;;;7.97;4.78;;;;;;;;;;5033092;28;20076;-75
2021/06/14 10:49:38;;;;;;;9.82;4.65;;;;;;;;;;5033012;28;20040;-75
2021/06/14 10:52:05;;;;;;;9.07;4.25;;;;;;;;;;5033036;28;20060;-74
2021/06/14 10:54:43;;;;;;;9.80;4.30;;;615.30;998.40;;;;;;5034710;28;20041;-74
2021/06/14 10:57:10;;;;;;;9.13;3.95;;;615.00;1024.00;;;;;;5020424;28;20029;-73
2021/06/14 10:59:44;;;;;;;6.00;3.63;;;;;;;;;;5033112;28;20037;-74
2021/06/14 11:02:12;;;;;;;11.70;4.70;;;614.60;998.40;;;;;;5019376;28;20116;-72
2021/06/14 11:04:38;;;;;;;5.50;3.83;;;589.70;1024.00;;;;;;5032972;28;20092;-74
2021/06/14 11:07:05;;;;;;;11.60;3.75;;;589.60;1024.00;;;;;;5032919;28;20423;-73
2021/06/14 11:09:42;;;;;;;7.25;3.80;;;589.70;1024.00;;;;;;5015160;28;20057;-73
2021/06/14 11:12:10;;;;;;;4.28;3.45;;;614.40;1049.60;;;;;;5032774;28;20471;-73
2021/06/14 11:14:44;;;;;;;12.35;5.10;;;614.80;1024.00;;;;;;5032742;28;20440;-75
2021/06/14 11:17:16;;;;;;;6.18;3.70;;;;;;;;;;5032540;28;20040;-75
2021/06/14 11:19:43;;;;;;;9.90;3.78;;;;;;;;;;5032749;28;20030;-75
2021/06/14 11:22:08;;;;;;;10.40;4.72;;;614.60;998.40;;;;;;5032643;28;20140;-74
2021/06/14 11:24:36;;;;;;;9.45;4.90;;;;;;;;;;5034519;28;20120;-74
2021/06/14 11:27:02;;;;;;;7.13;3.92;;;;;;;;;;5037171;28;20032;-76
2021/06/14 11:29:28;;;;;;;8.77;3.78;;;614.90;1024.00;;;;;;5018259;28;20097;-74
2021/06/14 11:32:02;;;;;;;7.80;4.55;;;615.30;972.80;;;;;;5032318;28;20428;-75
2021/06/14 11:34:38;;;;;;;7.75;4.18;;;;;;;;;;5032326;28;20476;-75
2021/06/14 11:37:04;;;;;;;6.43;4.10;;;;;;;;;;5032372;28;20101;-75
2021/06/14 11:39:30;;;;;;;8.00;4.95;;;;;;;;;;5032213;28;20387;-74
2021/06/14 11:42:07;;;;;;;7.13;3.90;;;;;;;;;;5032104;28;20024;-72
2021/06/14 11:44:33;;;;;;;10.48;4.97;;;665.60;972.80;;;;;;5032186;28;20065;-73
2021/06/14 11:47:27;;;;;;;8.18;4.63;;;640.50;947.20;;;;;;5032084;28;20459;-72
2021/06/14 11:49:57;;;;;;;8.35;4.28;;;640.10;972.80;;;;;;5029346;28;20083;-74
2021/06/14 11:52:27;;;;;;;7.95;3.45;;;640.20;947.20;;;;;;5031890;28;20033;-73
2021/06/14 11:54:58;;;;;;;7.00;3.83;;;640.30;947.20;;;;;;5033558;28;20033;-74
2021/06/14 11:57:33;;;;;;;5.53;3.30;;;640.50;947.20;;;;;;5032168;28;20068;-73
2021/06/14 11:59:59;;;;;;;12.20;3.80;;;;;;;;;;5032030;28;20041;-74
2021/06/14 12:02:28;;;;;;;6.82;3.53;;;640.20;972.80;;;;;;5032072;28;20151;-74
2021/06/14 12:04:58;;;;;;;10.38;3.60;;;640.20;947.20;;;;;;5014063;28;20508;-75
2021/06/14 12:07:34;;;;;;;6.22;3.42;;;;;;;;;;5032086;28;20029;-72
2021/06/14 12:10:07;;;;;;;6.47;4.03;;;640.60;972.80;;;;;;5032446;28;20026;-73
2021/06/14 12:12:33;;;;;;;8.80;3.97;;;640.70;947.20;;;;;;5032356;28;20025;-75
2021/06/14 12:14:59;;;;;;;5.55;3.10;;;640.60;947.20;;;;;;5031958;28;20095;-75
2021/06/14 12:17:30;;;;;;;5.72;3.20;;;640.60;921.60;;;;;;5031982;28;20108;-75
2021/06/14 12:19:57;;;;;;;5.75;3.53;;;640.50;921.60;;;;;;5031833;28;20022;-74
2021/06/14 12:22:24;;;;;;;6.93;3.63;;;640.70;947.20;;;;;;5032009;28;20042;-74
2021/06/14 12:24:51;;;;;;;6.93;3.13;;;640.50;947.20;;;;;;5035690;28;20045;-70
2021/06/14 12:27:19;;;;;;;10.73;4.30;;;640.40;947.20;;;;;;5034481;28;20021;-75
2021/06/14 12:29:44;;;;;;;5.45;2.95;;;640.40;947.20;;;;;;5018202;28;20091;-75
2021/06/14 12:32:16;;;;;;;7.05;3.20;;;640.50;947.20;;;;;;5031792;28;20476;-74
2021/06/14 12:34:44;;;;;;;7.43;3.70;;;640.40;921.60;;;;;;5031337;28;20030;-74
2021/06/14 12:37:18;;;;;;;6.28;3.45;;;640.60;947.20;;;;;;5031906;28;20470;-74
2021/06/14 12:39:58;;;;;;;5.88;3.13;;;640.60;921.60;;;;;;5031646;28;20495;-74
2021/06/14 12:42:25;;;;;;;6.55;3.45;;;640.80;947.20;;;;;;5032114;28;20427;-74
2021/06/14 12:45:13;;;;;;;5.75;3.33;;;665.60;921.60;;;;;;5031442;28;20068;-75
2021/06/14 12:47:58;;;;;;;6.55;3.35;;;665.60;921.60;;;;;;5031797;28;20028;-72
2021/06/14 12:50:27;;;;;;;5.43;3.30;;;640.90;947.20;;;;;;5019757;28;20029;-73
2021/06/14 12:52:54;;;;;;;6.10;3.60;;;665.60;998.40;;;;;;5031878;28;20472;-73
2021/06/14 12:55:23;;;;;;;5.75;4.35;;;640.90;972.80;;;;;;5033366;28;20082;-72
2021/06/14 12:57:49;;;;;;;4.03;3.03;;;640.90;947.20;;;;;;5031630;28;20026;-73
2021/06/14 13:00:25;;;;;;;7.95;3.10;;;665.60;947.20;;;;;;5031470;28;20022;-72
2021/06/14 13:02:56;;;;;;;6.05;3.38;;;665.90;998.40;;;;;;5031509;28;20034;-73
2021/06/14 13:05:26;;;;;;;6.57;4.13;;;;;;;;;;5032356;28;20104;-74
2021/06/14 13:07:55;;;;;;;6.80;3.60;;;;;;;;;;5035233;28;20083;-73
2021/06/14 13:10:23;;;;;;;5.82;4.03;;;;;;;;;;5035314;28;20290;-74
2021/06/14 13:12:49;;;;;;;4.38;3.42;;;;;;;;;;5035112;28;20510;-71
2021/06/14 13:15:15;;;;;;;8.63;3.42;;;;;;;;;;5034866;28;20096;-73